createdAt,value
2023-05-25T00:01:03.511Z,7.32
2023-05-25T00:03:32.149Z,7.58
2023-05-25T00:06:01.660Z,7.62
2023-05-25T00:08:29.633Z,7.15
2023-05-25T00:10:57.282Z,7.03
2023-05-25T00:13:24.873Z,7.20
2023-05-25T00:15:52.568Z,7.24
2023-05-25T00:18:21.828Z,7.45
2023-05-25T00:20:49.417Z,7.15
2023-05-25T00:23:17.050Z,7.25
2023-05-25T00:25:44.845Z,7.17
2023-05-25T00:28:12.656Z,7.18
2023-05-25T00:30:40.446Z,7.09
2023-05-25T00:33:10.569Z,6.76
2023-05-25T00:35:40.026Z,6.63
2023-05-25T00:38:08.082Z,6.45
2023-05-25T00:40:35.696Z,6.45
2023-05-25T00:43:03.266Z,7.17
2023-05-25T00:45:30.888Z,7.12
2023-05-25T00:47:58.527Z,7.03
2023-05-25T00:50:37.692Z,6.82
2023-05-25T00:53:06.798Z,6.61
2023-05-25T00:55:34.983Z,6.86
2023-05-25T00:58:02.573Z,6.87
2023-05-25T01:00:30.598Z,6.90
2023-05-25T01:02:59.422Z,6.89
2023-05-25T01:05:29.132Z,6.68
2023-05-25T01:07:57.363Z,6.66
2023-05-25T01:10:26.390Z,6.86
2023-05-25T01:12:54.248Z,6.77
2023-05-25T01:15:21.943Z,6.96
2023-05-25T01:17:54.086Z,6.84
2023-05-25T01:20:22.074Z,6.85
2023-05-25T01:22:52.275Z,6.71
2023-05-25T01:25:21.871Z,6.51
2023-05-25T01:27:49.955Z,6.50
2023-05-25T01:30:17.864Z,6.06
2023-05-25T01:32:45.694Z,5.73
2023-05-25T01:35:13.411Z,6.23
2023-05-25T01:37:47.575Z,6.54
2023-05-25T01:40:16.692Z,6.46
2023-05-25T01:42:44.281Z,6.20
2023-05-25T01:45:12.524Z,6.32
2023-05-25T01:47:41.868Z,6.27
2023-05-25T01:50:12.159Z,6.39
2023-05-25T01:52:40.977Z,6.35
2023-05-25T01:55:09.179Z,6.24
2023-05-25T01:57:39.727Z,6.43
2023-05-25T02:00:08.897Z,6.38
2023-05-25T02:02:42.690Z,6.35
2023-05-25T02:05:10.462Z,6.46
2023-05-25T02:07:38.101Z,6.44
2023-05-25T02:10:05.983Z,6.45
2023-05-25T02:12:33.749Z,5.95
2023-05-25T02:15:02.678Z,6.20
2023-05-25T02:17:31.645Z,6.48
2023-05-25T02:19:59.982Z,6.42
2023-05-25T02:22:27.765Z,6.39
2023-05-25T02:24:55.343Z,6.05
2023-05-25T02:27:23.311Z,5.98
2023-05-25T02:29:53.218Z,5.62
2023-05-25T02:32:22.510Z,5.77
2023-05-25T02:34:51.027Z,5.81
2023-05-25T02:37:18.677Z,6.02
2023-05-25T02:39:46.205Z,6.17
2023-05-25T02:42:13.840Z,5.88
2023-05-25T02:44:41.430Z,6.31
2023-05-25T02:47:09.382Z,6.12
2023-05-25T02:49:38.357Z,6.13
2023-05-25T02:52:06.419Z,5.93
2023-05-25T02:54:34.001Z,5.89
2023-05-25T02:57:03.117Z,6.02
2023-05-25T02:59:30.861Z,5.92
2023-05-25T03:01:59.291Z,6.01
2023-05-25T03:04:27.099Z,5.82
2023-05-25T03:06:56.392Z,5.81
2023-05-25T03:09:23.989Z,5.95
2023-05-25T03:11:51.573Z,6.04
2023-05-25T03:14:21.498Z,5.68
2023-05-25T03:16:55.677Z,5.92
2023-05-25T03:19:24.596Z,6.02
2023-05-25T03:21:52.202Z,6.01
2023-05-25T03:24:21.688Z,5.73
2023-05-25T03:26:49.273Z,5.58
2023-05-25T03:29:18.086Z,5.85
2023-05-25T03:31:45.710Z,5.96
2023-05-25T03:34:13.408Z,5.95
2023-05-25T03:36:46.007Z,5.87
2023-05-25T03:39:14.769Z,5.85
2023-05-25T03:41:44.296Z,5.68
2023-05-25T03:44:12.627Z,5.78
2023-05-25T03:46:43.073Z,6.14
2023-05-25T03:49:13.929Z,5.95
2023-05-25T03:51:41.975Z,6.08
2023-05-25T03:54:09.593Z,5.97
2023-05-25T03:56:37.169Z,5.98
2023-05-25T03:59:07.512Z,5.96
2023-05-25T04:01:38.219Z,6.02
2023-05-25T04:04:06.197Z,6.00
2023-05-25T04:06:37.259Z,6.08
2023-05-25T04:09:04.978Z,5.99
2023-05-25T04:11:34.179Z,6.16
2023-05-25T04:14:02.140Z,6.20
2023-05-25T04:16:34.576Z,6.26
2023-05-25T04:19:03.378Z,6.36
2023-05-25T04:21:32.229Z,6.29
2023-05-25T04:24:01.247Z,6.44
2023-05-25T04:26:29.226Z,6.36
2023-05-25T04:28:58.463Z,6.22
2023-05-25T04:31:35.397Z,6.33
2023-05-25T04:34:23.715Z,6.52
2023-05-25T04:37:05.224Z,6.52
2023-05-25T04:39:33.508Z,6.58
2023-05-25T04:42:04.372Z,6.28
2023-05-25T04:44:33.200Z,6.52
2023-05-25T04:47:03.023Z,6.86
2023-05-25T04:49:33.982Z,6.85
2023-05-25T04:52:01.863Z,6.91
2023-05-25T04:54:31.230Z,7.07
2023-05-25T04:57:01.675Z,6.98
2023-05-25T04:59:29.261Z,7.10
2023-05-25T05:01:56.847Z,7.27
2023-05-25T05:04:25.769Z,7.38
2023-05-25T05:06:56.117Z,7.37
2023-05-25T05:09:25.833Z,7.45
2023-05-25T05:11:56.721Z,7.40
2023-05-25T05:14:24.330Z,7.55
2023-05-25T05:16:52.023Z,7.60
2023-05-25T05:19:19.845Z,7.50
2023-05-25T05:21:49.367Z,7.58
2023-05-25T05:24:18.349Z,7.76
2023-05-25T05:26:56.362Z,7.87
2023-05-25T05:29:30.068Z,8.04
2023-05-25T05:31:58.421Z,8.25
2023-05-25T05:34:26.471Z,8.20
2023-05-25T05:36:58.634Z,8.05
2023-05-25T05:39:28.383Z,8.13
2023-05-25T05:41:56.555Z,8.29
2023-05-25T05:44:37.378Z,8.35
2023-05-25T05:47:05.166Z,8.59
2023-05-25T05:49:34.413Z,8.52
2023-05-25T05:52:03.681Z,8.86
2023-05-25T05:54:32.125Z,8.68
2023-05-25T05:57:05.144Z,8.68
2023-05-25T05:59:34.670Z,8.85
2023-05-25T06:02:02.411Z,9.15
2023-05-25T06:04:30.286Z,9.29
2023-05-25T06:06:59.368Z,9.17
2023-05-25T06:09:28.322Z,9.42
2023-05-25T06:12:00.037Z,9.65
2023-05-25T06:14:34.150Z,9.55
2023-05-25T06:17:04.085Z,9.79
2023-05-25T06:19:31.805Z,9.90
2023-05-25T06:21:59.695Z,9.95
2023-05-25T06:24:28.692Z,10.07
2023-05-25T06:26:56.307Z,10.14
2023-05-25T06:29:23.904Z,10.31
2023-05-25T06:31:51.672Z,10.58
2023-05-25T06:34:19.812Z,10.72
2023-05-25T06:36:47.778Z,10.76
2023-05-25T06:39:16.378Z,11.14
2023-05-25T06:41:45.640Z,11.21
2023-05-25T06:44:17.077Z,10.84
2023-05-25T06:46:47.872Z,11.22
2023-05-25T06:49:16.434Z,11.09
2023-05-25T06:51:44.034Z,11.10
2023-05-25T06:54:13.921Z,11.32
2023-05-25T06:56:41.699Z,11.58
2023-05-25T06:59:10.676Z,11.78
2023-05-25T07:01:38.363Z,11.73
2023-05-25T07:04:06.136Z,11.71
2023-05-25T07:06:34.890Z,11.70
2023-05-25T07:09:02.860Z,11.98
2023-05-25T07:11:30.942Z,12.13
2023-05-25T07:14:01.397Z,11.83
2023-05-25T07:16:30.416Z,11.84
2023-05-25T07:19:00.075Z,11.75
2023-05-25T07:21:28.115Z,12.19
2023-05-25T07:23:55.845Z,12.13
2023-05-25T07:26:23.486Z,12.09
2023-05-25T07:28:51.118Z,12.50
2023-05-25T07:31:18.804Z,12.51
2023-05-25T07:33:47.834Z,12.66
2023-05-25T07:36:15.491Z,12.27
2023-05-25T07:38:43.117Z,12.37
2023-05-25T07:41:12.182Z,12.47
2023-05-25T07:43:39.841Z,12.68
2023-05-25T07:46:07.422Z,12.40
2023-05-25T07:48:34.979Z,12.01
2023-05-25T07:51:07.805Z,12.48
2023-05-25T07:53:35.359Z,12.59
2023-05-25T07:56:03.112Z,12.48
2023-05-25T07:58:30.838Z,12.70
2023-05-25T08:00:59.155Z,13.05
2023-05-25T08:03:39.867Z,12.82
2023-05-25T08:06:15.874Z,13.31
2023-05-25T08:08:45.013Z,13.37
2023-05-25T08:11:12.696Z,13.23
2023-05-25T08:13:40.249Z,13.25
2023-05-25T08:16:08.611Z,13.31
2023-05-25T08:18:36.164Z,13.39
2023-05-25T08:21:03.881Z,13.48
2023-05-25T08:23:32.882Z,13.52
2023-05-25T08:26:01.316Z,13.48
2023-05-25T08:28:28.977Z,13.62
2023-05-25T08:30:58.702Z,13.06
2023-05-25T08:33:26.386Z,12.82
2023-05-25T08:35:54.166Z,13.23
2023-05-25T08:38:25.173Z,13.61
2023-05-25T08:41:00.000Z,13.24
2023-05-25T08:43:27.627Z,13.20
2023-05-25T08:45:55.210Z,13.53
2023-05-25T08:48:39.565Z,13.48
2023-05-25T08:51:10.867Z,13.48
2023-05-25T08:53:39.018Z,13.97
2023-05-25T08:56:08.374Z,13.86
2023-05-25T08:58:36.069Z,13.95
2023-05-25T09:01:03.991Z,14.03
2023-05-25T09:03:31.898Z,13.87
2023-05-25T09:05:59.561Z,14.04
2023-05-25T09:08:27.265Z,14.23
2023-05-25T09:10:54.873Z,13.79
2023-05-25T09:13:23.796Z,13.72
2023-05-25T09:15:52.185Z,13.94
2023-05-25T09:18:20.024Z,14.23
2023-05-25T09:20:48.134Z,14.34
2023-05-25T09:23:18.365Z,14.39
2023-05-25T09:25:46.116Z,14.29
2023-05-25T09:28:26.313Z,14.26
2023-05-25T09:30:56.211Z,14.10
2023-05-25T09:33:23.806Z,14.32
2023-05-25T09:35:51.643Z,14.37
2023-05-25T09:38:19.501Z,14.76
2023-05-25T09:40:47.666Z,14.61
2023-05-25T09:43:24.970Z,14.70
2023-05-25T09:46:01.768Z,14.83
2023-05-25T09:48:30.342Z,15.02
2023-05-25T09:50:57.961Z,14.59
2023-05-25T09:53:25.544Z,14.56
2023-05-25T09:55:54.501Z,14.31
2023-05-25T09:58:23.481Z,14.88
2023-05-25T10:00:51.536Z,14.64
2023-05-25T10:03:21.680Z,15.40
2023-05-25T10:05:49.382Z,15.60
2023-05-25T10:08:17.142Z,15.70
2023-05-25T10:10:45.514Z,15.21
2023-05-25T10:13:13.334Z,15.36
2023-05-25T10:15:41.651Z,15.43
2023-05-25T10:18:09.918Z,15.37
2023-05-25T10:20:39.408Z,15.42
2023-05-25T10:23:10.048Z,15.45
2023-05-25T10:25:39.298Z,15.46
2023-05-25T10:28:08.795Z,15.52
2023-05-25T10:30:41.120Z,15.29
2023-05-25T10:33:08.846Z,15.41
2023-05-25T10:35:46.652Z,15.84
2023-05-25T10:38:20.270Z,15.69
2023-05-25T10:40:48.546Z,15.39
2023-05-25T10:43:16.391Z,15.59
2023-05-25T10:45:44.202Z,15.54
2023-05-25T10:48:12.070Z,15.82
2023-05-25T10:50:40.156Z,15.93
2023-05-25T10:53:07.900Z,15.62
2023-05-25T10:55:51.380Z,15.94
2023-05-25T10:58:19.756Z,15.99
2023-05-25T11:00:58.072Z,15.79
2023-05-25T11:03:47.796Z,16.00
2023-05-25T11:06:15.933Z,16.12
2023-05-25T11:08:51.525Z,15.87
2023-05-25T11:11:21.032Z,15.69
2023-05-25T11:13:49.414Z,16.00
2023-05-25T11:16:24.398Z,15.86
2023-05-25T11:18:55.352Z,16.04
2023-05-25T11:21:23.605Z,15.93
2023-05-25T11:23:55.119Z,16.06
2023-05-25T11:26:24.090Z,15.87
2023-05-25T11:28:52.057Z,16.22
2023-05-25T11:31:24.380Z,16.40
2023-05-25T11:33:57.288Z,16.30
2023-05-25T11:36:25.786Z,16.27
2023-05-25T11:39:04.936Z,16.21
2023-05-25T11:41:40.342Z,16.35
2023-05-25T11:44:07.909Z,15.94
2023-05-25T11:46:35.544Z,16.16
2023-05-25T11:49:03.155Z,16.78
2023-05-25T11:51:31.480Z,16.54
2023-05-25T11:53:59.035Z,16.62
2023-05-25T11:56:35.039Z,16.75
2023-05-25T11:59:04.970Z,16.35
2023-05-25T12:01:34.368Z,16.44
2023-05-25T12:04:02.779Z,16.65
2023-05-25T12:06:31.583Z,16.44
2023-05-25T12:08:59.190Z,16.09
2023-05-25T12:11:30.222Z,16.20
2023-05-25T12:13:57.894Z,16.29
2023-05-25T12:16:26.883Z,16.55
2023-05-25T12:18:54.500Z,16.68
2023-05-25T12:21:22.138Z,16.41
2023-05-25T12:23:49.751Z,16.80
2023-05-25T12:26:17.587Z,16.66
2023-05-25T12:28:58.620Z,16.67
2023-05-25T12:31:28.001Z,16.46
2023-05-25T12:34:05.378Z,16.76
2023-05-25T12:36:39.908Z,17.03
2023-05-25T12:39:07.734Z,17.00
2023-05-25T12:41:43.211Z,16.54
2023-05-25T12:44:17.236Z,17.11
2023-05-25T12:46:46.304Z,16.89
2023-05-25T12:49:24.231Z,17.23
2023-05-25T12:51:51.832Z,17.03
2023-05-25T12:54:32.895Z,17.07
2023-05-25T12:57:02.324Z,16.95
2023-05-25T12:59:30.168Z,16.77
2023-05-25T13:01:59.365Z,17.37
2023-05-25T13:04:27.007Z,17.13
2023-05-25T13:06:57.991Z,17.07
2023-05-25T13:09:26.826Z,17.03
2023-05-25T13:11:55.708Z,16.98
2023-05-25T13:14:23.818Z,16.88
2023-05-25T13:16:51.540Z,17.49
2023-05-25T13:19:21.221Z,17.61
2023-05-25T13:21:49.462Z,17.49
2023-05-25T13:24:17.589Z,17.41
2023-05-25T13:26:48.086Z,17.30
2023-05-25T13:29:18.915Z,17.20
2023-05-25T13:31:47.022Z,17.53
2023-05-25T13:34:17.235Z,17.51
2023-05-25T13:36:46.641Z,17.51
2023-05-25T13:39:17.314Z,17.28
2023-05-25T13:41:46.251Z,17.26
2023-05-25T13:44:16.667Z,17.43
2023-05-25T13:46:47.548Z,17.27
2023-05-25T13:49:19.681Z,17.37
2023-05-25T13:51:48.949Z,17.49
2023-05-25T13:54:16.697Z,17.67
2023-05-25T13:56:48.811Z,17.71
2023-05-25T13:59:16.495Z,17.84
2023-05-25T14:01:44.154Z,17.49
2023-05-25T14:04:14.829Z,17.47
2023-05-25T14:06:42.432Z,17.53
2023-05-25T14:09:12.801Z,17.33
2023-05-25T14:11:41.209Z,17.74
2023-05-25T14:14:13.779Z,17.78
2023-05-25T14:16:47.220Z,17.45
2023-05-25T14:19:16.805Z,17.61
2023-05-25T14:21:44.424Z,17.60
2023-05-25T14:24:13.459Z,17.47
2023-05-25T14:26:42.692Z,17.43
2023-05-25T14:29:11.616Z,17.80
2023-05-25T14:31:40.573Z,17.67
2023-05-25T14:34:08.273Z,17.60
2023-05-25T14:36:35.969Z,17.78
2023-05-25T14:39:03.536Z,17.40
2023-05-25T14:41:32.481Z,17.52
2023-05-25T14:44:00.066Z,17.39
2023-05-25T14:46:27.699Z,17.85
2023-05-25T14:48:55.455Z,17.61
2023-05-25T14:51:23.042Z,17.52
2023-05-25T14:53:51.140Z,17.60
2023-05-25T14:56:19.752Z,17.53
2023-05-25T14:58:48.692Z,17.53
2023-05-25T15:01:16.251Z,17.96
2023-05-25T15:03:44.210Z,17.81
2023-05-25T15:06:11.897Z,17.71
2023-05-25T15:08:39.490Z,17.90
2023-05-25T15:11:07.072Z,17.60
2023-05-25T15:13:34.751Z,17.44
2023-05-25T15:16:03.799Z,17.55
2023-05-25T15:18:31.490Z,17.49
2023-05-25T15:20:59.069Z,17.58
2023-05-25T15:23:26.685Z,17.48
2023-05-25T15:25:54.261Z,17.54
2023-05-25T15:28:21.844Z,17.37
2023-05-25T15:30:49.381Z,17.47
2023-05-25T15:33:18.382Z,17.30
2023-05-25T15:35:48.407Z,17.38
2023-05-25T15:38:16.002Z,17.40
2023-05-25T15:40:52.770Z,17.38
2023-05-25T15:43:20.433Z,17.03
2023-05-25T15:45:48.081Z,17.42
2023-05-25T15:48:15.792Z,17.40
2023-05-25T15:50:44.888Z,17.39
2023-05-25T15:53:12.588Z,17.33
2023-05-25T15:55:40.182Z,17.43
2023-05-25T15:58:07.777Z,17.37
2023-05-25T16:00:35.578Z,17.28
2023-05-25T16:03:03.519Z,17.38
2023-05-25T16:05:31.275Z,17.52
2023-05-25T16:08:00.288Z,17.55
2023-05-25T16:10:28.004Z,17.31
2023-05-25T16:12:55.692Z,17.15
2023-05-25T16:15:23.891Z,17.39
2023-05-25T16:17:51.502Z,17.30
2023-05-25T16:20:19.187Z,17.31
2023-05-25T16:22:46.884Z,17.32
2023-05-25T16:25:15.959Z,17.61
2023-05-25T16:27:43.663Z,17.25
2023-05-25T16:30:13.343Z,17.25
2023-05-25T16:32:41.479Z,17.26
2023-05-25T16:35:09.462Z,17.39
2023-05-25T16:37:37.051Z,17.44
2023-05-25T16:40:45.988Z,17.59
2023-05-25T16:43:26.952Z,17.53
2023-05-25T16:46:25.983Z,17.19
2023-05-25T16:52:29.723Z,17.26
2023-05-25T16:54:59.089Z,17.27
2023-05-25T16:57:26.914Z,17.13
2023-05-25T16:59:55.865Z,17.35
2023-05-25T17:02:23.907Z,16.99
2023-05-25T17:04:51.632Z,16.98
2023-05-25T17:07:19.222Z,16.94
2023-05-25T17:09:46.867Z,16.94
2023-05-25T17:12:14.698Z,17.11
2023-05-25T17:14:44.840Z,16.97
2023-05-25T17:17:14.893Z,16.98
2023-05-25T17:19:44.752Z,16.76
2023-05-25T17:22:15.619Z,16.57
2023-05-25T17:24:46.329Z,16.48
2023-05-25T17:27:19.253Z,16.48
2023-05-25T17:30:00.343Z,16.46
2023-05-25T17:32:40.899Z,16.57
2023-05-25T17:35:08.872Z,16.42
2023-05-25T17:37:38.872Z,16.29
2023-05-25T17:40:07.055Z,16.34
2023-05-25T17:42:34.851Z,16.39
2023-05-25T17:45:03.891Z,16.22
2023-05-25T17:47:34.364Z,16.09
2023-05-25T17:50:02.445Z,16.02
2023-05-25T17:52:31.626Z,16.10
2023-05-25T17:55:01.109Z,16.07
2023-05-25T17:57:29.310Z,15.93
2023-05-25T17:59:58.998Z,15.79
2023-05-25T18:02:30.327Z,15.73
2023-05-25T18:05:02.336Z,15.61
2023-05-25T18:07:30.290Z,15.47
2023-05-25T18:09:58.990Z,15.24
2023-05-25T18:12:26.669Z,15.20
2023-05-25T18:14:54.346Z,15.25
2023-05-25T18:17:22.010Z,14.98
2023-05-25T18:19:49.773Z,14.77
2023-05-25T18:22:18.871Z,14.68
2023-05-25T18:24:46.481Z,14.63
2023-05-25T18:27:14.135Z,14.37
2023-05-25T18:29:43.086Z,14.30
2023-05-25T18:32:11.158Z,14.26
2023-05-25T18:34:38.875Z,14.05
2023-05-25T18:37:06.833Z,13.87
2023-05-25T18:39:36.025Z,13.83
2023-05-25T18:42:03.634Z,13.81
2023-05-25T18:44:31.382Z,13.71
2023-05-25T18:46:59.145Z,13.30
2023-05-25T18:49:34.232Z,13.05
2023-05-25T18:52:06.573Z,12.93
2023-05-25T18:54:34.434Z,12.84
2023-05-25T18:57:03.796Z,12.80
2023-05-25T18:59:33.529Z,12.78
2023-05-25T19:02:02.215Z,12.68
2023-05-25T19:04:31.075Z,12.53
2023-05-25T19:06:58.601Z,12.59
2023-05-25T19:09:26.152Z,12.35
2023-05-25T19:11:53.643Z,12.34
2023-05-25T19:14:25.285Z,12.39
2023-05-25T19:16:53.966Z,12.49
2023-05-25T19:19:23.012Z,12.02
2023-05-25T19:21:50.872Z,11.92
2023-05-25T19:24:19.086Z,12.04
2023-05-25T19:26:49.700Z,11.67
2023-05-25T19:29:22.697Z,11.74
2023-05-25T19:32:01.283Z,11.61
2023-05-25T19:34:29.048Z,11.53
2023-05-25T19:37:07.454Z,11.52
2023-05-25T19:39:38.775Z,11.73
2023-05-25T19:42:06.560Z,11.79
2023-05-25T19:44:34.212Z,11.88
2023-05-25T19:47:03.131Z,11.54
2023-05-25T19:49:31.778Z,11.41
2023-05-25T19:51:59.484Z,11.28
2023-05-25T19:54:27.396Z,11.46
2023-05-25T19:57:52.830Z,11.33
2023-05-25T20:00:26.795Z,11.30
2023-05-25T20:02:56.622Z,11.50
2023-05-25T20:05:24.359Z,11.76
2023-05-25T20:07:53.745Z,11.68
2023-05-25T20:10:24.353Z,11.58
2023-05-25T20:12:51.951Z,11.38
2023-05-25T20:15:34.275Z,11.49
2023-05-25T20:18:04.289Z,11.38
2023-05-25T20:20:32.266Z,11.49
2023-05-25T20:23:02.360Z,11.35
2023-05-25T20:25:32.292Z,11.09
2023-05-25T20:27:59.843Z,11.38
2023-05-25T20:30:27.473Z,11.41
2023-05-25T20:32:55.143Z,11.13
2023-05-25T20:35:26.354Z,10.51
2023-05-25T20:37:54.005Z,10.76
2023-05-25T20:40:21.557Z,10.76
2023-05-25T20:42:53.852Z,10.73
2023-05-25T20:45:21.439Z,10.79
2023-05-25T20:47:56.689Z,11.21
2023-05-25T20:50:25.613Z,11.45
2023-05-25T20:52:55.695Z,11.43
2023-05-25T20:55:26.399Z,11.44
2023-05-25T20:57:54.001Z,11.27
2023-05-25T21:00:23.684Z,10.80
2023-05-25T21:02:51.389Z,10.83
2023-05-25T21:05:20.447Z,10.93
2023-05-25T21:07:49.329Z,10.85
2023-05-25T21:10:19.805Z,10.91
2023-05-25T21:12:47.373Z,11.06
2023-05-25T21:18:59.229Z,10.80
2023-05-25T21:21:33.816Z,11.11
2023-05-25T21:24:02.860Z,10.92
2023-05-25T21:26:32.147Z,10.98
2023-05-25T21:28:59.728Z,10.92
2023-05-25T21:31:27.333Z,10.85
2023-05-25T21:33:54.890Z,10.57
2023-05-25T21:36:22.477Z,10.34
2023-05-25T21:38:50.035Z,10.00
2023-05-25T21:41:19.327Z,10.25
2023-05-25T21:43:46.930Z,10.41
2023-05-25T21:46:14.515Z,10.49
2023-05-25T21:48:42.072Z,10.19
2023-05-25T21:51:09.612Z,9.51
2023-05-25T21:53:37.206Z,9.89
2023-05-25T21:56:04.745Z,10.16
2023-05-25T21:58:34.083Z,10.26
2023-05-25T22:01:01.779Z,10.24
2023-05-25T22:03:29.448Z,10.07
2023-05-25T22:05:57.047Z,10.10
2023-05-25T22:08:24.775Z,9.82
2023-05-25T22:10:52.625Z,9.88
2023-05-25T22:13:20.205Z,9.62
2023-05-25T22:15:49.150Z,9.47
2023-05-25T22:18:16.711Z,9.24
2023-05-25T22:20:44.337Z,9.04
2023-05-25T22:23:12.288Z,9.05
2023-05-25T22:25:39.875Z,9.08
2023-05-25T22:28:07.481Z,9.47
2023-05-25T22:30:35.120Z,9.22
2023-05-25T22:33:04.221Z,8.85
2023-05-25T22:35:31.826Z,9.07
2023-05-25T22:37:59.434Z,9.31
2023-05-25T22:40:27.006Z,9.79
2023-05-25T22:42:54.522Z,9.45
2023-05-25T22:45:22.241Z,9.07
2023-05-25T22:47:49.819Z,9.15
2023-05-25T22:50:18.872Z,9.37
2023-05-25T22:52:46.503Z,9.51
2023-05-25T22:55:14.119Z,9.46
2023-05-25T22:57:41.705Z,9.66
2023-05-25T23:00:09.645Z,9.80
2023-05-25T23:02:37.263Z,9.43
2023-05-25T23:05:05.610Z,9.24
2023-05-25T23:07:34.580Z,9.04
2023-05-25T23:10:02.161Z,8.29
2023-05-25T23:12:29.753Z,8.36
2023-05-25T23:14:59.363Z,8.65
2023-05-25T23:17:26.954Z,9.16
2023-05-25T23:19:54.898Z,9.34
2023-05-25T23:22:22.494Z,9.56
2023-05-25T23:24:51.393Z,9.46
2023-05-25T23:27:19.033Z,8.27
2023-05-25T23:29:46.604Z,8.14
2023-05-25T23:32:14.202Z,8.41
2023-05-25T23:34:41.765Z,8.44
2023-05-25T23:37:09.522Z,8.75
2023-05-25T23:39:37.068Z,8.58
2023-05-25T23:42:06.166Z,8.71
2023-05-25T23:44:33.704Z,8.68
2023-05-25T23:47:05.790Z,8.72
2023-05-25T23:49:33.369Z,8.84
2023-05-25T23:52:01.483Z,8.86
2023-05-25T23:54:29.037Z,8.85
2023-05-25T23:56:56.606Z,8.97
2023-05-25T23:59:25.566Z,8.99
